createdAt,value
2018-07-25T00:01:57.909Z,98.60
2018-07-25T00:11:49.525Z,99.90
2018-07-25T00:19:13.297Z,99.90
2018-07-25T00:26:37.042Z,99.90
2018-07-25T00:34:00.790Z,99.90
2018-07-25T00:36:28.854Z,99.90
2018-07-25T00:38:56.877Z,99.90
2018-07-25T00:41:24.258Z,99.90
2018-07-25T00:46:20.214Z,99.90
2018-07-25T00:48:48.266Z,99.90
2018-07-25T00:51:16.327Z,99.90
2018-07-25T00:53:44.396Z,99.90
2018-07-25T00:56:12.471Z,99.90
2018-07-25T00:58:40.524Z,99.90
2018-07-25T01:01:08.578Z,99.90
2018-07-25T01:03:35.986Z,99.90
2018-07-25T01:06:03.525Z,99.90
2018-07-25T01:08:31.589Z,99.90
2018-07-25T01:10:59.642Z,99.90
2018-07-25T01:13:27.714Z,99.90
2018-07-25T01:15:55.806Z,99.90
2018-07-25T01:18:23.845Z,99.90
2018-07-25T01:20:51.913Z,99.90
2018-07-25T01:23:19.996Z,99.90
2018-07-25T01:30:43.073Z,99.90
2018-07-25T01:33:11.126Z,99.90
2018-07-25T01:35:39.183Z,99.90
2018-07-25T01:38:07.254Z,99.90
2018-07-25T01:40:35.323Z,99.90
2018-07-25T01:43:03.378Z,99.90
2018-07-25T01:45:31.458Z,99.90
2018-07-25T01:47:58.820Z,99.90
2018-07-25T01:50:26.218Z,99.90
2018-07-25T01:52:53.601Z,99.90
2018-07-25T01:55:21.657Z,99.90
2018-07-25T01:57:49.740Z,99.90
2018-07-25T02:00:17.777Z,99.90
2018-07-25T02:02:45.188Z,99.90
2018-07-25T02:05:12.589Z,99.90
2018-07-25T02:07:39.980Z,99.90
2018-07-25T02:12:34.561Z,99.90
2018-07-25T02:15:02.627Z,99.90
2018-07-25T02:17:30.707Z,99.90
2018-07-25T02:19:58.090Z,99.90
2018-07-25T02:22:26.145Z,99.90
2018-07-25T02:24:54.207Z,99.90
2018-07-25T02:27:21.634Z,99.90
2018-07-25T02:29:49.707Z,99.90
2018-07-25T02:32:17.766Z,99.90
2018-07-25T02:37:13.666Z,99.90
2018-07-25T02:42:09.566Z,99.90
2018-07-25T02:44:36.969Z,99.90
2018-07-25T02:47:04.370Z,99.90
2018-07-25T02:51:58.947Z,99.90
2018-07-25T02:54:26.321Z,99.90
2018-07-25T02:56:53.777Z,99.90
2018-07-25T02:59:21.122Z,99.90
2018-07-25T03:01:48.524Z,99.90
2018-07-25T03:04:15.918Z,99.90
2018-07-25T03:06:43.994Z,99.90
2018-07-25T03:11:39.925Z,99.90
2018-07-25T03:14:07.993Z,99.90
2018-07-25T03:16:36.063Z,99.90
2018-07-25T03:19:04.110Z,99.90
2018-07-25T03:21:32.174Z,99.90
2018-07-25T03:24:00.210Z,99.90
2018-07-25T03:26:28.361Z,99.90
2018-07-25T03:28:56.422Z,99.90
2018-07-25T03:31:24.577Z,99.90
2018-07-25T03:33:52.581Z,99.90
2018-07-25T03:36:20.638Z,99.90
2018-07-25T03:38:48.706Z,99.90
2018-07-25T03:41:16.754Z,99.90
2018-07-25T03:43:44.151Z,99.90
2018-07-25T03:46:11.547Z,99.90
2018-07-25T03:48:38.940Z,99.90
2018-07-25T03:51:06.321Z,99.90
2018-07-25T03:53:33.705Z,99.90
2018-07-25T03:56:01.091Z,99.90
2018-07-25T03:58:28.507Z,99.90
2018-07-25T04:00:55.882Z,99.90
2018-07-25T04:03:23.270Z,99.90
2018-07-25T04:05:50.695Z,99.90
2018-07-25T04:08:18.101Z,99.90
2018-07-25T04:10:47.926Z,99.90
2018-07-25T04:15:42.533Z,99.90
2018-07-25T04:18:10.570Z,99.90
2018-07-25T04:20:37.967Z,99.90
2018-07-25T04:23:06.057Z,99.90
2018-07-25T04:25:34.106Z,99.90
2018-07-25T04:30:28.658Z,99.90
2018-07-25T04:32:56.708Z,99.90
2018-07-25T04:35:24.776Z,99.90
2018-07-25T04:37:52.161Z,99.90
2018-07-25T04:40:19.533Z,99.90
2018-07-25T04:42:46.984Z,99.90
2018-07-25T04:47:41.460Z,99.90
2018-07-25T04:50:08.846Z,99.90
2018-07-25T04:52:36.697Z,99.90
2018-07-25T04:57:31.233Z,99.90
2018-07-25T04:59:58.616Z,99.90
2018-07-25T05:02:25.990Z,99.90
2018-07-25T05:04:54.041Z,99.90
2018-07-25T05:07:22.095Z,99.90
2018-07-25T05:09:49.477Z,99.90
2018-07-25T05:12:16.869Z,99.90
2018-07-25T05:14:44.262Z,99.90
2018-07-25T05:17:11.826Z,99.90
2018-07-25T05:19:39.206Z,99.90
2018-07-25T05:22:06.590Z,99.90
2018-07-25T05:24:33.966Z,99.90
2018-07-25T05:27:01.349Z,99.90
2018-07-25T05:29:28.742Z,99.90
2018-07-25T05:31:56.129Z,99.90
2018-07-25T05:34:23.505Z,99.90
2018-07-25T05:36:50.893Z,99.90
2018-07-25T05:39:18.389Z,99.90
2018-07-25T05:41:45.754Z,99.90
2018-07-25T05:44:13.141Z,99.90
2018-07-25T05:49:07.757Z,99.90
2018-07-25T05:51:35.393Z,99.90
2018-07-25T05:54:02.929Z,99.90
2018-07-25T05:58:58.542Z,99.90
2018-07-25T06:01:26.281Z,99.90
2018-07-25T06:06:21.547Z,99.90
2018-07-25T06:08:48.926Z,99.90
2018-07-25T06:11:16.966Z,99.90
2018-07-25T06:16:12.838Z,99.90
2018-07-25T06:18:40.877Z,99.90
2018-07-25T06:21:08.942Z,99.90
2018-07-25T06:23:36.994Z,99.90
2018-07-25T06:26:05.325Z,99.90
2018-07-25T06:28:33.362Z,99.90
2018-07-25T06:33:29.855Z,99.90
2018-07-25T06:35:57.897Z,99.90
2018-07-25T06:38:25.952Z,99.90
2018-07-25T06:40:54.006Z,99.90
2018-07-25T06:43:22.098Z,99.90
2018-07-25T06:45:50.147Z,99.90
2018-07-25T06:48:18.383Z,99.90
2018-07-25T06:50:46.475Z,99.90
2018-07-25T06:53:14.541Z,99.90
2018-07-25T06:55:42.598Z,99.90
2018-07-25T06:58:10.659Z,99.90
2018-07-25T07:03:06.610Z,99.90
2018-07-25T07:05:34.676Z,99.90
2018-07-25T07:08:02.802Z,99.90
2018-07-25T07:10:30.934Z,99.90
2018-07-25T07:12:58.998Z,99.90
2018-07-25T07:15:27.050Z,99.90
2018-07-25T07:17:55.106Z,99.90
2018-07-25T07:20:22.517Z,99.90
2018-07-25T07:22:50.582Z,99.90
2018-07-25T07:30:14.386Z,99.90
2018-07-25T07:32:42.439Z,99.90
2018-07-25T07:35:10.575Z,99.90
2018-07-25T07:37:38.614Z,99.90
2018-07-25T07:40:06.606Z,99.90
2018-07-25T07:42:33.993Z,99.90
2018-07-25T07:45:02.045Z,99.90
2018-07-25T07:47:29.440Z,99.90
2018-07-25T07:49:57.733Z,99.90
2018-07-25T07:52:25.849Z,99.90
2018-07-25T07:54:53.881Z,99.90
2018-07-25T07:57:21.918Z,99.90
2018-07-25T07:59:49.405Z,99.90
2018-07-25T08:02:17.468Z,99.90
2018-07-25T08:04:44.818Z,99.90
2018-07-25T08:07:12.197Z,99.90
2018-07-25T08:09:39.665Z,99.90
2018-07-25T08:12:07.866Z,99.90
2018-07-25T08:14:35.907Z,99.90
2018-07-25T08:17:04.076Z,99.90
2018-07-25T08:19:32.283Z,99.90
2018-07-25T08:22:00.374Z,99.90
2018-07-25T08:24:28.406Z,99.90
2018-07-25T08:26:56.480Z,99.90
2018-07-25T08:29:24.550Z,99.90
2018-07-25T08:31:52.685Z,99.90
2018-07-25T08:34:20.782Z,99.90
2018-07-25T08:36:48.201Z,99.90
2018-07-25T08:39:15.580Z,99.90
2018-07-25T08:41:42.964Z,99.90
2018-07-25T08:44:10.333Z,99.90
2018-07-25T08:46:37.713Z,99.90
2018-07-25T08:49:05.201Z,99.90
2018-07-25T08:51:33.247Z,99.90
2018-07-25T08:54:01.274Z,97.70
2018-07-25T08:56:29.306Z,95.10
2018-07-25T08:58:57.337Z,95.60
2018-07-25T09:01:25.690Z,97.60
2018-07-25T09:03:53.763Z,96.90
2018-07-25T09:06:21.891Z,96.40
2018-07-25T09:08:49.275Z,94.10
2018-07-25T09:11:21.650Z,96.40
2018-07-25T09:13:49.690Z,92.20
2018-07-25T09:16:17.799Z,93.10
2018-07-25T09:18:46.367Z,93.80
2018-07-25T09:21:13.755Z,93.20
2018-07-25T09:23:41.133Z,94.40
2018-07-25T09:26:08.520Z,94.40
2018-07-25T09:28:36.665Z,93.60
2018-07-25T09:31:04.726Z,93.50
2018-07-25T09:33:32.165Z,93.40
2018-07-25T09:36:00.254Z,93.80
2018-07-25T09:38:27.654Z,94.30
2018-07-25T09:40:55.795Z,93.70
2018-07-25T09:43:23.769Z,90.20
2018-07-25T09:45:51.231Z,91.80
2018-07-25T09:48:19.282Z,91.40
2018-07-25T09:50:47.322Z,91.20
2018-07-25T09:53:15.373Z,92.90
2018-07-25T09:55:43.418Z,90.30
2018-07-25T09:58:11.455Z,90.70
2018-07-25T10:00:44.738Z,88.30
2018-07-25T10:03:12.793Z,88.20
2018-07-25T10:05:40.817Z,90.60
2018-07-25T10:08:08.858Z,86.20
2018-07-25T10:10:37.073Z,78.40
2018-07-25T10:13:05.540Z,77.30
2018-07-25T10:15:33.587Z,77.90
2018-07-25T10:18:01.605Z,80.20
2018-07-25T10:20:29.746Z,78.50
2018-07-25T10:22:57.829Z,76.70
2018-07-25T10:25:25.902Z,76.20
2018-07-25T10:27:53.920Z,71.00
2018-07-25T10:30:22.002Z,72.80
2018-07-25T10:32:50.114Z,73.80
2018-07-25T10:35:18.097Z,74.30
2018-07-25T10:37:46.138Z,73.40
2018-07-25T10:40:14.162Z,70.90
2018-07-25T10:42:42.200Z,72.60
2018-07-25T10:45:10.759Z,71.20
2018-07-25T10:47:39.351Z,73.30
2018-07-25T10:50:08.174Z,69.40
2018-07-25T10:52:36.392Z,70.30
2018-07-25T10:55:04.601Z,70.30
2018-07-25T10:57:33.093Z,66.90
2018-07-25T11:00:01.163Z,67.80
2018-07-25T11:02:29.192Z,65.10
2018-07-25T11:04:57.236Z,60.90
2018-07-25T11:07:25.350Z,65.30
2018-07-25T11:09:53.422Z,64.80
2018-07-25T11:12:20.833Z,70.10
2018-07-25T11:14:48.216Z,67.50
2018-07-25T11:17:15.593Z,59.70
2018-07-25T11:19:42.980Z,59.20
2018-07-25T11:24:49.605Z,57.10
2018-07-25T11:29:44.503Z,57.00
2018-07-25T11:34:39.097Z,56.30
2018-07-25T11:37:06.490Z,57.90
2018-07-25T11:39:33.878Z,55.70
2018-07-25T11:42:01.262Z,57.90
2018-07-25T11:44:28.641Z,55.10
2018-07-25T11:46:56.046Z,53.80
2018-07-25T11:49:23.434Z,54.10
2018-07-25T11:51:50.817Z,55.00
2018-07-25T11:54:18.313Z,55.40
2018-07-25T11:56:45.710Z,53.70
2018-07-25T11:59:13.117Z,55.60
2018-07-25T12:01:40.593Z,54.00
2018-07-25T12:04:07.937Z,54.80
2018-07-25T12:06:35.383Z,51.60
2018-07-25T12:09:03.006Z,48.90
2018-07-25T12:11:30.384Z,51.30
2018-07-25T12:13:57.752Z,48.80
2018-07-25T12:16:25.177Z,49.60
2018-07-25T12:18:52.581Z,50.90
2018-07-25T12:21:19.978Z,51.00
2018-07-25T12:23:47.349Z,51.60
2018-07-25T12:26:14.730Z,50.50
2018-07-25T12:28:42.110Z,50.70
2018-07-25T12:31:09.505Z,49.20
2018-07-25T12:33:36.881Z,51.00
2018-07-25T12:36:04.732Z,53.30
2018-07-25T12:38:32.120Z,50.40
2018-07-25T12:40:59.496Z,51.40
2018-07-25T12:43:26.877Z,51.50
2018-07-25T12:45:54.291Z,50.50
2018-07-25T12:48:21.763Z,49.00
2018-07-25T12:50:49.097Z,47.10
2018-07-25T12:53:16.544Z,47.20
2018-07-25T12:55:43.870Z,47.80
2018-07-25T12:58:11.237Z,48.50
2018-07-25T13:00:38.624Z,46.90
2018-07-25T13:03:06.601Z,47.50
2018-07-25T13:05:33.984Z,48.30
2018-07-25T13:10:28.613Z,48.80
2018-07-25T13:12:56.018Z,46.60
2018-07-25T13:15:23.410Z,45.70
2018-07-25T13:17:50.792Z,46.60
2018-07-25T13:20:18.305Z,46.50
2018-07-25T13:22:45.760Z,47.00
2018-07-25T13:25:13.113Z,46.70
2018-07-25T13:27:40.505Z,45.80
2018-07-25T13:30:08.225Z,47.00
2018-07-25T13:32:35.617Z,46.20
2018-07-25T13:35:03.023Z,47.00
2018-07-25T13:37:30.406Z,45.80
2018-07-25T13:39:57.849Z,46.20
2018-07-25T13:42:25.233Z,45.40
2018-07-25T13:44:52.665Z,48.50
2018-07-25T13:49:47.230Z,47.20
2018-07-25T13:52:14.786Z,44.00
2018-07-25T13:57:09.347Z,44.50
2018-07-25T13:59:36.771Z,45.50
2018-07-25T14:02:04.145Z,47.50
2018-07-25T14:04:31.535Z,51.20
2018-07-25T14:06:59.697Z,55.00
2018-07-25T14:09:27.093Z,60.80
2018-07-25T14:11:55.139Z,63.40
2018-07-25T14:14:23.181Z,64.00
2018-07-25T14:16:51.236Z,64.30
2018-07-25T14:19:18.646Z,64.90
2018-07-25T14:21:46.030Z,64.40
2018-07-25T14:24:13.420Z,61.50
2018-07-25T14:26:40.844Z,58.90
2018-07-25T14:29:08.311Z,58.50
2018-07-25T14:31:35.586Z,57.30
2018-07-25T14:34:02.974Z,59.40
2018-07-25T14:36:30.369Z,61.50
2018-07-25T14:38:57.762Z,59.90
2018-07-25T14:41:26.365Z,58.30
2018-07-25T14:43:53.952Z,58.90
2018-07-25T14:46:21.677Z,57.40
2018-07-25T14:48:49.064Z,58.20
2018-07-25T14:51:17.993Z,55.90
2018-07-25T14:56:12.597Z,56.30
2018-07-25T14:58:40.214Z,59.10
2018-07-25T15:03:34.942Z,57.40
2018-07-25T15:06:02.369Z,58.40
2018-07-25T15:08:29.866Z,58.90
2018-07-25T15:10:57.258Z,59.00
2018-07-25T15:13:24.629Z,58.30
2018-07-25T15:15:52.722Z,59.60
2018-07-25T15:18:20.105Z,56.60
2018-07-25T15:20:47.490Z,57.90
2018-07-25T15:23:19.358Z,55.40
2018-07-25T15:25:46.741Z,56.10
2018-07-25T15:28:14.117Z,58.50
2018-07-25T15:30:41.511Z,56.80
2018-07-25T15:33:08.893Z,52.00
2018-07-25T15:35:36.290Z,51.00
2018-07-25T15:38:03.681Z,51.10
2018-07-25T15:40:31.063Z,49.00
2018-07-25T15:42:58.449Z,51.10
2018-07-25T15:45:25.836Z,49.20
2018-07-25T15:47:53.214Z,48.30
2018-07-25T15:50:20.708Z,49.10
2018-07-25T15:52:48.801Z,50.10
2018-07-25T15:55:16.165Z,50.80
2018-07-25T15:57:43.568Z,48.10
2018-07-25T16:00:10.958Z,48.10
2018-07-25T16:02:38.405Z,46.70
2018-07-25T16:05:05.794Z,50.70
2018-07-25T16:07:33.177Z,47.50
2018-07-25T16:10:00.622Z,48.90
2018-07-25T16:12:27.937Z,48.10
2018-07-25T16:14:55.309Z,50.40
2018-07-25T16:19:49.865Z,51.60
2018-07-25T16:22:17.257Z,50.10
2018-07-25T16:24:44.797Z,51.20
2018-07-25T16:27:12.173Z,50.90
2018-07-25T16:29:39.562Z,47.90
2018-07-25T16:32:06.969Z,49.10
2018-07-25T16:34:34.355Z,48.70
2018-07-25T16:37:01.755Z,46.80
2018-07-25T16:39:29.140Z,47.90
2018-07-25T16:41:56.706Z,48.40
2018-07-25T16:44:24.086Z,48.50
2018-07-25T16:46:51.466Z,48.50
2018-07-25T16:49:18.861Z,49.50
2018-07-25T16:51:46.240Z,49.60
2018-07-25T16:54:13.667Z,49.70
2018-07-25T16:56:41.152Z,48.40
2018-07-25T16:59:08.445Z,48.00
2018-07-25T17:01:35.850Z,48.40
2018-07-25T17:04:03.233Z,48.50
2018-07-25T17:06:30.627Z,47.60
2018-07-25T17:08:58.009Z,48.00
2018-07-25T17:11:30.281Z,49.10
2018-07-25T17:13:58.398Z,48.10
2018-07-25T17:16:25.809Z,48.80
2018-07-25T17:18:53.198Z,48.40
2018-07-25T17:21:20.762Z,49.30
2018-07-25T17:26:15.349Z,48.50
2018-07-25T17:28:42.733Z,48.70
2018-07-25T17:31:10.118Z,49.10
2018-07-25T17:33:37.567Z,49.40
2018-07-25T17:36:04.982Z,47.90
2018-07-25T17:38:33.025Z,48.60
2018-07-25T17:41:01.095Z,48.20
2018-07-25T17:43:29.099Z,49.00
2018-07-25T17:45:57.134Z,48.90
2018-07-25T17:48:24.533Z,49.70
2018-07-25T17:50:51.942Z,49.70
2018-07-25T17:53:19.750Z,50.90
2018-07-25T17:55:47.790Z,51.30
2018-07-25T17:58:15.253Z,50.60
2018-07-25T18:00:42.650Z,50.60
2018-07-25T18:03:10.035Z,50.60
2018-07-25T18:05:37.405Z,51.50
2018-07-25T18:08:05.582Z,51.10
2018-07-25T18:10:32.973Z,51.50
2018-07-25T18:13:05.814Z,52.30
2018-07-25T18:15:33.198Z,52.70
2018-07-25T18:18:00.573Z,52.50
2018-07-25T18:20:28.614Z,52.90
2018-07-25T18:22:56.032Z,53.80
2018-07-25T18:25:23.370Z,54.20
2018-07-25T18:27:51.409Z,54.40
2018-07-25T18:30:18.788Z,54.10
2018-07-25T18:32:46.814Z,54.50
2018-07-25T18:35:14.197Z,54.40
2018-07-25T18:37:41.576Z,54.60
2018-07-25T18:40:08.961Z,55.40
2018-07-25T18:42:36.333Z,55.50
2018-07-25T18:45:03.802Z,55.60
2018-07-25T18:47:31.173Z,55.10
2018-07-25T18:49:58.606Z,55.70
2018-07-25T18:52:25.981Z,56.00
2018-07-25T18:54:53.385Z,56.10
2018-07-25T18:57:20.802Z,57.80
2018-07-25T18:59:48.182Z,57.90
2018-07-25T19:02:16.217Z,60.00
2018-07-25T19:04:44.254Z,58.30
2018-07-25T19:09:38.845Z,58.20
2018-07-25T19:12:06.913Z,61.50
2018-07-25T19:14:40.587Z,63.00
2018-07-25T19:19:35.175Z,63.80
2018-07-25T19:22:02.577Z,66.40
2018-07-25T19:24:29.967Z,68.10
2018-07-25T19:26:58.042Z,62.70
2018-07-25T19:29:26.103Z,62.90
2018-07-25T19:31:53.517Z,62.60
2018-07-25T19:34:21.573Z,63.10
2018-07-25T19:36:48.954Z,68.80
2018-07-25T19:39:16.389Z,66.50
2018-07-25T19:41:43.785Z,65.40
2018-07-25T19:44:11.850Z,65.10
2018-07-25T19:46:39.914Z,67.00
2018-07-25T19:49:08.464Z,64.10
2018-07-25T19:51:36.155Z,66.20
2018-07-25T19:54:04.225Z,67.00
2018-07-25T19:56:32.262Z,65.20
2018-07-25T19:59:00.386Z,63.70
2018-07-25T20:01:28.469Z,63.10
2018-07-25T20:03:56.505Z,62.30
2018-07-25T20:06:24.542Z,63.90
2018-07-25T20:08:52.642Z,63.60
2018-07-25T20:11:20.694Z,62.80
2018-07-25T20:13:54.119Z,63.40
2018-07-25T20:16:22.134Z,63.20
2018-07-25T20:18:50.174Z,65.60
2018-07-25T20:21:18.230Z,66.20
2018-07-25T20:23:46.339Z,73.90
2018-07-25T20:26:14.321Z,66.90
2018-07-25T20:28:42.387Z,64.30
2018-07-25T20:31:10.531Z,68.20
2018-07-25T20:33:38.590Z,69.30
2018-07-25T20:36:06.647Z,67.70
2018-07-25T20:38:34.701Z,67.80
2018-07-25T20:41:02.771Z,72.50
2018-07-25T20:43:30.813Z,67.80
2018-07-25T20:45:58.858Z,70.50
2018-07-25T20:48:26.981Z,68.10
2018-07-25T20:50:54.982Z,67.40
2018-07-25T20:53:23.061Z,67.90
2018-07-25T20:55:51.110Z,67.90
2018-07-25T20:58:19.153Z,68.10
2018-07-25T21:00:47.228Z,68.70
2018-07-25T21:03:14.612Z,68.60
2018-07-25T21:05:42.675Z,70.60
2018-07-25T21:08:10.727Z,69.70
2018-07-25T21:10:38.904Z,69.40
2018-07-25T21:13:06.927Z,72.10
2018-07-25T21:15:34.988Z,71.70
2018-07-25T21:18:03.033Z,72.40
2018-07-25T21:20:31.082Z,70.50
2018-07-25T21:22:59.126Z,72.60
2018-07-25T21:25:27.287Z,72.90
2018-07-25T21:27:55.429Z,74.80
2018-07-25T21:30:23.481Z,73.60
2018-07-25T21:32:51.534Z,72.90
2018-07-25T21:35:19.558Z,73.10
2018-07-25T21:37:47.595Z,73.70
2018-07-25T21:40:15.621Z,74.50
2018-07-25T21:42:43.770Z,74.40
2018-07-25T21:45:11.790Z,75.60
2018-07-25T21:47:39.841Z,76.00
2018-07-25T21:50:07.927Z,77.30
2018-07-25T21:52:35.997Z,76.90
2018-07-25T21:55:04.147Z,75.90
2018-07-25T21:57:32.194Z,76.50
2018-07-25T22:00:00.249Z,78.90
2018-07-25T22:02:28.306Z,77.20
2018-07-25T22:07:24.180Z,77.80
2018-07-25T22:09:52.222Z,80.10
2018-07-25T22:12:20.273Z,80.00
2018-07-25T22:14:48.318Z,80.60
2018-07-25T22:17:16.380Z,81.70
2018-07-25T22:19:44.456Z,81.40
2018-07-25T22:22:12.506Z,81.90
2018-07-25T22:24:40.593Z,83.40
2018-07-25T22:29:36.735Z,86.90
2018-07-25T22:32:04.807Z,85.50
2018-07-25T22:34:32.877Z,85.40
2018-07-25T22:37:00.918Z,89.10
2018-07-25T22:39:28.979Z,87.00
2018-07-25T22:41:56.374Z,88.70
2018-07-25T22:46:50.932Z,89.10
2018-07-25T22:49:18.989Z,89.70
2018-07-25T22:51:46.366Z,90.60
2018-07-25T22:54:13.753Z,90.80
2018-07-25T22:56:41.153Z,90.80
2018-07-25T22:59:08.557Z,91.90
2018-07-25T23:01:35.933Z,91.20
2018-07-25T23:04:03.372Z,91.30
2018-07-25T23:06:30.761Z,91.70
2018-07-25T23:08:58.814Z,92.20
2018-07-25T23:11:26.881Z,92.30
2018-07-25T23:13:54.927Z,92.70
2018-07-25T23:16:23.007Z,92.80
2018-07-25T23:18:51.086Z,93.30
2018-07-25T23:21:19.158Z,93.80
2018-07-25T23:23:47.205Z,94.30
2018-07-25T23:26:15.318Z,94.80
2018-07-25T23:28:43.399Z,95.10
2018-07-25T23:31:11.458Z,95.80
2018-07-25T23:36:07.358Z,96.80
2018-07-25T23:38:35.408Z,97.30
2018-07-25T23:41:03.456Z,98.10
2018-07-25T23:43:31.518Z,99.00
2018-07-25T23:48:27.403Z,99.90
2018-07-25T23:50:55.444Z,99.90
2018-07-25T23:53:23.814Z,99.90
2018-07-25T23:55:51.890Z,99.90
2018-07-25T23:58:19.973Z,99.90
